createdAt,value
2018-10-06T16:01:14.768Z,24.80
2018-10-06T16:03:42.961Z,24.20
2018-10-06T16:06:11.144Z,24.00
2018-10-06T16:08:39.324Z,23.80
2018-10-06T16:11:07.520Z,23.40
2018-10-06T16:13:35.706Z,23.00
2018-10-06T16:16:03.868Z,22.90
2018-10-06T16:18:32.555Z,22.10
2018-10-06T16:21:00.732Z,21.90
2018-10-06T16:23:28.887Z,21.80
2018-10-06T16:25:57.070Z,21.70
2018-10-06T16:28:25.252Z,21.90
2018-10-06T16:30:53.420Z,21.50
2018-10-06T16:33:21.644Z,21.30
2018-10-06T16:35:49.749Z,21.00
2018-10-06T16:38:17.940Z,20.90
2018-10-06T16:40:46.139Z,20.70
2018-10-06T16:43:14.364Z,20.60
2018-10-06T16:45:43.420Z,20.40
2018-10-06T16:48:11.562Z,20.30
2018-10-06T16:50:39.831Z,20.10
2018-10-06T16:53:07.993Z,20.00
2018-10-06T16:55:36.212Z,19.90
2018-10-06T16:58:04.405Z,19.80
2018-10-06T17:00:32.580Z,19.70
2018-10-06T17:03:00.755Z,19.60
2018-10-06T17:05:28.936Z,19.60
2018-10-06T17:07:57.114Z,19.60
2018-10-06T17:10:25.305Z,19.90
2018-10-06T17:12:53.554Z,20.20
2018-10-06T17:15:21.631Z,20.30
2018-10-06T17:17:49.792Z,19.80
2018-10-06T17:20:17.945Z,19.80
2018-10-06T17:22:46.100Z,19.60
2018-10-06T17:25:14.349Z,19.70
2018-10-06T17:27:42.404Z,19.60
2018-10-06T17:30:10.573Z,20.00
2018-10-06T17:32:38.727Z,20.10
2018-10-06T17:35:06.763Z,20.10
2018-10-06T17:37:34.936Z,20.00
2018-10-06T17:40:03.173Z,19.80
2018-10-06T17:42:31.316Z,19.50
2018-10-06T17:44:59.472Z,19.60
2018-10-06T17:47:27.639Z,19.50
2018-10-06T17:49:55.881Z,19.60
2018-10-06T17:52:24.113Z,19.60
2018-10-06T17:54:52.296Z,19.40
2018-10-06T17:57:20.474Z,19.40
2018-10-06T17:59:48.628Z,19.40
2018-10-06T18:02:16.789Z,19.30
2018-10-06T18:04:44.990Z,19.60
2018-10-06T18:07:13.137Z,19.90
2018-10-06T18:09:41.294Z,20.00
2018-10-06T18:12:09.444Z,20.00
2018-10-06T18:14:37.708Z,19.70
2018-10-06T18:17:05.865Z,19.80
2018-10-06T18:19:34.008Z,19.60
2018-10-06T18:22:02.157Z,19.70
2018-10-06T18:24:30.339Z,19.80
2018-10-06T18:26:58.527Z,20.00
2018-10-06T18:29:26.869Z,20.00
2018-10-06T18:31:54.912Z,19.80
2018-10-06T18:34:23.064Z,19.80
2018-10-06T18:36:51.282Z,19.80
2018-10-06T18:39:19.470Z,19.80
2018-10-06T18:41:47.624Z,19.70
2018-10-06T18:44:15.806Z,19.40
2018-10-06T18:46:44.003Z,19.30
2018-10-06T18:49:12.176Z,19.50
2018-10-06T18:51:40.368Z,19.40
2018-10-06T18:54:08.576Z,19.20
2018-10-06T18:56:36.756Z,18.90
2018-10-06T18:59:04.899Z,18.80
2018-10-06T19:01:33.052Z,18.60
2018-10-06T19:04:01.336Z,18.50
2018-10-06T19:06:29.364Z,18.30
2018-10-06T19:08:57.741Z,18.30
2018-10-06T19:11:25.909Z,18.10
2018-10-06T19:13:54.105Z,17.90
2018-10-06T19:16:22.382Z,17.80
2018-10-06T19:18:50.480Z,17.50
2018-10-06T19:21:18.632Z,17.50
2018-10-06T19:23:46.776Z,17.30
2018-10-06T19:26:14.947Z,17.10
2018-10-06T19:28:43.088Z,16.90
2018-10-06T19:31:11.251Z,16.90
2018-10-06T19:33:39.389Z,16.80
2018-10-06T19:36:07.572Z,16.80
2018-10-06T19:38:35.738Z,16.70
2018-10-06T19:41:03.941Z,16.50
2018-10-06T19:43:32.132Z,16.50
2018-10-06T19:46:00.304Z,16.40
2018-10-06T19:48:28.432Z,16.30
2018-10-06T19:50:56.597Z,16.20
2018-10-06T19:53:24.740Z,16.30
2018-10-06T19:55:52.944Z,16.40
2018-10-06T19:58:21.112Z,16.40
2018-10-06T20:00:49.772Z,16.30
2018-10-06T20:03:17.940Z,16.40
2018-10-06T20:05:46.099Z,16.10
2018-10-06T20:08:14.261Z,16.00
2018-10-06T20:10:42.446Z,15.80
2018-10-06T20:13:10.591Z,15.90
2018-10-06T20:15:38.861Z,15.70
2018-10-06T20:18:07.001Z,15.50
2018-10-06T20:20:35.156Z,15.40
2018-10-06T20:23:03.305Z,15.40
2018-10-06T20:25:31.500Z,15.30
2018-10-06T20:27:59.652Z,15.20
2018-10-06T20:30:28.225Z,15.20
2018-10-06T20:32:56.435Z,15.30
2018-10-06T20:35:24.548Z,15.20
2018-10-06T20:37:52.736Z,15.00
2018-10-06T20:40:20.909Z,15.00
2018-10-06T20:42:49.064Z,14.90
2018-10-06T20:45:17.285Z,14.90
2018-10-06T20:47:45.456Z,14.80
2018-10-06T20:50:13.645Z,14.80
2018-10-06T20:52:41.847Z,14.70
2018-10-06T20:55:10.019Z,14.70
2018-10-06T20:57:38.172Z,14.60
2018-10-06T21:00:07.231Z,14.60
2018-10-06T21:02:35.385Z,14.50
2018-10-06T21:05:03.563Z,14.50
2018-10-06T21:07:31.703Z,14.60
2018-10-06T21:09:59.878Z,14.50
2018-10-06T21:12:28.029Z,14.60
2018-10-06T21:14:56.185Z,14.70
2018-10-06T21:17:24.358Z,14.70
2018-10-06T21:19:52.516Z,14.70
2018-10-06T21:22:20.680Z,14.60
2018-10-06T21:24:48.877Z,14.40
2018-10-06T21:27:17.031Z,14.30
2018-10-06T21:29:45.403Z,14.30
2018-10-06T21:32:13.344Z,14.20
2018-10-06T21:34:41.512Z,14.20
2018-10-06T21:37:09.661Z,14.20
2018-10-06T21:39:37.814Z,14.20
2018-10-06T21:42:05.975Z,14.20
2018-10-06T21:44:34.141Z,14.20
2018-10-06T21:47:02.264Z,14.30
2018-10-06T21:49:30.432Z,14.20
2018-10-06T21:51:58.592Z,14.20
2018-10-06T21:54:26.732Z,14.10
2018-10-06T21:56:54.926Z,14.00
2018-10-06T21:59:23.068Z,13.90
